Akune, Japan
Current Conditions -  °F | °C
As of 5:00 PM on Saturday 25 Oct 2014 (Local Time) from RJFK Reporting Station
Broken Clouds Broken Clouds  
Wind Chill: 72°   Ceiling: 8000
Heat Index: 72°   Visibility: 6mi
Dew Point: 57°   Wind: 5mph
Humidity: 60%   Direction: 150°SSE
Pressure: 30.12"   Gusts: NA
Location:  32.01°N, 130.2°E
Report Text: RJFK 250800Z 15004KT 9999 FEW035 BKN080 22/14 Q1020
Loading
Personal Weather Stations






























Interactive Weather Map
Tropical Storm Tracking
New forecast layout! Learn more

10-Day Weather Forecast

Advertisements
Track Severe Weather on mobile